Archival Weather

Tamale

Tamale, Ghana (DGLE)

Report from: Thursday, December 7, 2023 11:00 AM UTC
Current time: Sunday, April 21, 2024 9:49 PM UTC

Current weather – Weather history – Daily summaries
Weather forecast

Temperature36.0°C (96.8°F)
Heat index39.8°C (103.7°F)
Dew point21.0°C (69.8°F)
Winds 3 kts (1.5 m/s, 3.5 mph) Southeast (140°)
Visibility5 mi. (8 km)
Altimeter29.88 in.Hg (1012 mB)
Relative humidity42 %
Density altitude2,755 ft. (840 m)
Remarks No significant changes expected in the next two hours
Flight conditions Marginal Visual Meteorological Conditions
Raw dataDGLE 071100Z 14003KT 8000 HZ 36/21 Q1012 NOSIG
An error has occurred. This application may no longer respond until reloaded. Reload 🗙